sensor_id;sensor_type;location;lat;lon;timestamp;pressure;altitude;pressure_sealevel;temperature;humidity
31082;BME280;17737;52.586;13.284;2023-05-27T00:00:36;102369.78;;;10.63;69.12
31082;BME280;17737;52.586;13.284;2023-05-27T00:03:04;102373.47;;;10.62;68.82
31082;BME280;17737;52.586;13.284;2023-05-27T00:05:33;102378.00;;;10.61;68.89
31082;BME280;17737;52.586;13.284;2023-05-27T00:08:01;102372.88;;;10.58;69.54
31082;BME280;17737;52.586;13.284;2023-05-27T00:10:29;102374.09;;;10.54;69.04
31082;BME280;17737;52.586;13.284;2023-05-27T00:12:58;102372.44;;;10.42;69.64
31082;BME280;17737;52.586;13.284;2023-05-27T00:15:26;102377.09;;;10.40;69.98
31082;BME280;17737;52.586;13.284;2023-05-27T00:17:54;102384.22;;;10.41;69.80
31082;BME280;17737;52.586;13.284;2023-05-27T00:20:22;102371.69;;;10.40;70.18
31082;BME280;17737;52.586;13.284;2023-05-27T00:22:51;102373.22;;;10.33;70.62
31082;BME280;17737;52.586;13.284;2023-05-27T00:25:19;102367.59;;;10.25;70.32
31082;BME280;17737;52.586;13.284;2023-05-27T00:27:47;102371.91;;;10.17;71.03
31082;BME280;17737;52.586;13.284;2023-05-27T00:30:17;102374.00;;;10.13;70.94
31082;BME280;17737;52.586;13.284;2023-05-27T00:32:45;102379.63;;;10.21;71.57
31082;BME280;17737;52.586;13.284;2023-05-27T00:35:13;102374.59;;;10.28;70.27
31082;BME280;17737;52.586;13.284;2023-05-27T00:37:42;102374.47;;;10.18;70.77
31082;BME280;17737;52.586;13.284;2023-05-27T00:40:11;102369.22;;;10.06;71.46
31082;BME280;17737;52.586;13.284;2023-05-27T00:42:41;102371.78;;;10.07;71.64
31082;BME280;17737;52.586;13.284;2023-05-27T00:45:11;102367.13;;;9.98;72.27
31082;BME280;17737;52.586;13.284;2023-05-27T00:47:41;102367.00;;;10.00;71.77
31082;BME280;17737;52.586;13.284;2023-05-27T00:50:10;102367.66;;;9.92;72.50
31082;BME280;17737;52.586;13.284;2023-05-27T00:52:38;102374.13;;;9.90;72.00
31082;BME280;17737;52.586;13.284;2023-05-27T00:55:08;102374.88;;;9.92;72.12
31082;BME280;17737;52.586;13.284;2023-05-27T00:57:36;102365.22;;;9.89;72.28
31082;BME280;17737;52.586;13.284;2023-05-27T01:00:06;102371.69;;;9.87;72.73
31082;BME280;17737;52.586;13.284;2023-05-27T01:02:35;102369.13;;;9.85;73.26
31082;BME280;17737;52.586;13.284;2023-05-27T01:05:09;102368.97;;;9.98;72.52
31082;BME280;17737;52.586;13.284;2023-05-27T01:07:48;102373.25;;;10.00;72.10
31082;BME280;17737;52.586;13.284;2023-05-27T01:10:33;102370.69;;;9.88;72.57
31082;BME280;17737;52.586;13.284;2023-05-27T01:13:14;102371.09;;;9.83;72.69
31082;BME280;17737;52.586;13.284;2023-05-27T01:15:47;102368.38;;;9.83;72.97
31082;BME280;17737;52.586;13.284;2023-05-27T01:18:18;102370.84;;;9.75;73.22
31082;BME280;17737;52.586;13.284;2023-05-27T01:20:51;102376.25;;;9.75;73.10
31082;BME280;17737;52.586;13.284;2023-05-27T01:23:25;102368.91;;;9.77;72.90
31082;BME280;17737;52.586;13.284;2023-05-27T01:25:53;102361.44;;;9.69;73.79
31082;BME280;17737;52.586;13.284;2023-05-27T01:28:21;102361.19;;;9.61;73.29
31082;BME280;17737;52.586;13.284;2023-05-27T01:30:52;102365.94;;;9.69;73.61
31082;BME280;17737;52.586;13.284;2023-05-27T01:33:26;102368.28;;;9.74;73.39
31082;BME280;17737;52.586;13.284;2023-05-27T01:36:04;102366.81;;;9.69;73.09
31082;BME280;17737;52.586;13.284;2023-05-27T01:38:40;102365.47;;;9.64;74.17
31082;BME280;17737;52.586;13.284;2023-05-27T01:41:10;102362.03;;;9.73;74.02
31082;BME280;17737;52.586;13.284;2023-05-27T01:43:41;102361.06;;;9.63;74.26
31082;BME280;17737;52.586;13.284;2023-05-27T01:46:10;102360.59;;;9.58;74.14
31082;BME280;17737;52.586;13.284;2023-05-27T01:48:38;102361.44;;;9.69;73.94
31082;BME280;17737;52.586;13.284;2023-05-27T01:51:06;102359.34;;;9.73;74.14
31082;BME280;17737;52.586;13.284;2023-05-27T01:53:34;102347.09;;;9.69;73.49
31082;BME280;17737;52.586;13.284;2023-05-27T01:56:04;102345.16;;;9.71;73.56
31082;BME280;17737;52.586;13.284;2023-05-27T01:58:32;102346.00;;;9.60;74.90
31082;BME280;17737;52.586;13.284;2023-05-27T02:01:00;102348.97;;;9.57;74.65
31082;BME280;17737;52.586;13.284;2023-05-27T02:03:28;102349.56;;;9.61;74.42
31082;BME280;17737;52.586;13.284;2023-05-27T02:05:56;102345.91;;;9.51;74.21
31082;BME280;17737;52.586;13.284;2023-05-27T02:08:24;102348.50;;;9.41;74.89
31082;BME280;17737;52.586;13.284;2023-05-27T02:10:54;102342.09;;;9.31;75.17
31082;BME280;17737;52.586;13.284;2023-05-27T02:13:23;102344.56;;;9.34;74.93
31082;BME280;17737;52.586;13.284;2023-05-27T02:15:51;102344.78;;;9.31;75.61
31082;BME280;17737;52.586;13.284;2023-05-27T02:18:20;102348.34;;;9.32;75.35
31082;BME280;17737;52.586;13.284;2023-05-27T02:20:48;102351.41;;;9.27;75.35
31082;BME280;17737;52.586;13.284;2023-05-27T02:23:16;102352.50;;;9.25;76.03
31082;BME280;17737;52.586;13.284;2023-05-27T02:25:44;102341.97;;;9.22;75.99
31082;BME280;17737;52.586;13.284;2023-05-27T02:28:12;102342.72;;;9.35;75.71
31082;BME280;17737;52.586;13.284;2023-05-27T02:30:41;102347.13;;;9.25;76.29
31082;BME280;17737;52.586;13.284;2023-05-27T02:33:09;102341.50;;;9.17;76.08
31082;BME280;17737;52.586;13.284;2023-05-27T02:35:37;102341.75;;;9.14;76.41
31082;BME280;17737;52.586;13.284;2023-05-27T02:38:05;102346.50;;;9.10;76.18
31082;BME280;17737;52.586;13.284;2023-05-27T02:40:33;102351.25;;;9.07;76.29
31082;BME280;17737;52.586;13.284;2023-05-27T02:43:01;102344.44;;;9.14;77.05
31082;BME280;17737;52.586;13.284;2023-05-27T02:45:29;102354.22;;;9.26;75.72
31082;BME280;17737;52.586;13.284;2023-05-27T02:47:59;102348.94;;;9.13;76.47
31082;BME280;17737;52.586;13.284;2023-05-27T02:50:28;102356.91;;;9.26;76.14
31082;BME280;17737;52.586;13.284;2023-05-27T02:52:56;102357.38;;;9.20;76.52
31082;BME280;17737;52.586;13.284;2023-05-27T02:55:24;102350.75;;;9.13;76.20
31082;BME280;17737;52.586;13.284;2023-05-27T02:57:52;102352.50;;;9.14;76.10
31082;BME280;17737;52.586;13.284;2023-05-27T03:00:20;102356.88;;;9.04;76.93
31082;BME280;17737;52.586;13.284;2023-05-27T03:02:48;102361.84;;;8.97;77.15
31082;BME280;17737;52.586;13.284;2023-05-27T03:05:18;102359.44;;;9.05;76.70
31082;BME280;17737;52.586;13.284;2023-05-27T03:07:46;102366.06;;;9.12;76.90
31082;BME280;17737;52.586;13.284;2023-05-27T03:10:14;102363.72;;;8.97;76.93
31082;BME280;17737;52.586;13.284;2023-05-27T03:12:42;102360.91;;;8.98;77.05
31082;BME280;17737;52.586;13.284;2023-05-27T03:15:10;102364.53;;;8.97;77.75
31082;BME280;17737;52.586;13.284;2023-05-27T03:17:38;102359.56;;;9.15;76.72
31082;BME280;17737;52.586;13.284;2023-05-27T03:20:07;102365.56;;;9.07;77.17
31082;BME280;17737;52.586;13.284;2023-05-27T03:22:36;102362.63;;;9.10;76.78
31082;BME280;17737;52.586;13.284;2023-05-27T03:25:05;102360.91;;;9.09;76.94
31082;BME280;17737;52.586;13.284;2023-05-27T03:27:34;102370.31;;;9.15;76.10
31082;BME280;17737;52.586;13.284;2023-05-27T03:30:03;102358.38;;;9.19;76.60
31082;BME280;17737;52.586;13.284;2023-05-27T03:32:32;102361.66;;;9.33;76.19
31082;BME280;17737;52.586;13.284;2023-05-27T03:35:00;102360.34;;;9.72;74.31
31082;BME280;17737;52.586;13.284;2023-05-27T03:37:28;102363.22;;;10.02;73.20
31082;BME280;17737;52.586;13.284;2023-05-27T03:39:57;102359.63;;;10.35;71.90
31082;BME280;17737;52.586;13.284;2023-05-27T03:42:25;102356.56;;;10.60;70.89
31082;BME280;17737;52.586;13.284;2023-05-27T03:44:53;102365.00;;;10.87;69.91
31082;BME280;17737;52.586;13.284;2023-05-27T03:47:21;102365.66;;;11.21;68.58
31082;BME280;17737;52.586;13.284;2023-05-27T03:49:49;102363.78;;;11.42;67.94
31082;BME280;17737;52.586;13.284;2023-05-27T03:52:17;102358.38;;;11.42;67.19
31082;BME280;17737;52.586;13.284;2023-05-27T03:54:46;102372.63;;;11.74;66.15
31082;BME280;17737;52.586;13.284;2023-05-27T03:57:15;102368.03;;;12.04;65.05
31082;BME280;17737;52.586;13.284;2023-05-27T03:59:43;102371.34;;;12.27;64.30
31082;BME280;17737;52.586;13.284;2023-05-27T04:02:11;102362.66;;;12.24;63.96
31082;BME280;17737;52.586;13.284;2023-05-27T04:04:39;102367.97;;;12.54;63.13
31082;BME280;17737;52.586;13.284;2023-05-27T04:07:08;102369.09;;;12.89;61.82
31082;BME280;17737;52.586;13.284;2023-05-27T04:09:36;102372.63;;;12.99;61.41
31082;BME280;17737;52.586;13.284;2023-05-27T04:12:05;102372.06;;;12.96;61.22
31082;BME280;17737;52.586;13.284;2023-05-27T04:14:35;102368.03;;;13.38;60.62
31082;BME280;17737;52.586;13.284;2023-05-27T04:17:03;102381.06;;;13.62;59.40
31082;BME280;17737;52.586;13.284;2023-05-27T04:19:31;102378.69;;;13.86;58.56
31082;BME280;17737;52.586;13.284;2023-05-27T04:21:59;102382.44;;;13.75;58.79
31082;BME280;17737;52.586;13.284;2023-05-27T04:24:27;102379.34;;;14.15;57.51
31082;BME280;17737;52.586;13.284;2023-05-27T04:26:55;102372.88;;;13.98;58.01
31082;BME280;17737;52.586;13.284;2023-05-27T04:29:23;102388.34;;;14.15;57.41
31082;BME280;17737;52.586;13.284;2023-05-27T04:31:53;102382.06;;;14.15;57.47
31082;BME280;17737;52.586;13.284;2023-05-27T04:34:23;102380.50;;;14.39;56.80
31082;BME280;17737;52.586;13.284;2023-05-27T04:36:51;102385.72;;;14.68;56.36
31082;BME280;17737;52.586;13.284;2023-05-27T04:39:19;102383.69;;;14.88;55.16
31082;BME280;17737;52.586;13.284;2023-05-27T04:41:47;102387.78;;;15.09;54.93
31082;BME280;17737;52.586;13.284;2023-05-27T04:44:16;102389.78;;;15.07;54.61
31082;BME280;17737;52.586;13.284;2023-05-27T04:46:44;102389.59;;;15.26;54.01
31082;BME280;17737;52.586;13.284;2023-05-27T04:49:14;102383.63;;;15.40;53.50
31082;BME280;17737;52.586;13.284;2023-05-27T04:51:42;102384.03;;;15.53;53.38
31082;BME280;17737;52.586;13.284;2023-05-27T04:54:11;102382.59;;;15.67;53.00
31082;BME280;17737;52.586;13.284;2023-05-27T04:56:39;102384.19;;;15.86;52.67
31082;BME280;17737;52.586;13.284;2023-05-27T04:59:07;102382.63;;;16.09;51.63
31082;BME280;17737;52.586;13.284;2023-05-27T05:01:42;102384.69;;;15.47;53.02
31082;BME280;17737;52.586;13.284;2023-05-27T05:04:26;102368.44;;;15.38;53.52
31082;BME280;17737;52.586;13.284;2023-05-27T05:06:54;102375.84;;;15.45;53.90
31082;BME280;17737;52.586;13.284;2023-05-27T05:09:22;102379.00;;;15.67;53.25
31082;BME280;17737;52.586;13.284;2023-05-27T05:11:51;102381.06;;;15.65;53.34
31082;BME280;17737;52.586;13.284;2023-05-27T05:14:19;102374.94;;;15.63;52.99
31082;BME280;17737;52.586;13.284;2023-05-27T05:16:47;102372.38;;;15.61;53.46
31082;BME280;17737;52.586;13.284;2023-05-27T05:19:15;102378.22;;;15.48;53.79
31082;BME280;17737;52.586;13.284;2023-05-27T05:21:44;102376.63;;;15.64;53.20
31082;BME280;17737;52.586;13.284;2023-05-27T05:24:13;102375.00;;;15.79;53.24
31082;BME280;17737;52.586;13.284;2023-05-27T05:26:41;102378.19;;;16.16;52.34
31082;BME280;17737;52.586;13.284;2023-05-27T05:29:10;102380.19;;;16.47;51.52
31082;BME280;17737;52.586;13.284;2023-05-27T05:31:38;102375.78;;;17.27;49.49
31082;BME280;17737;52.586;13.284;2023-05-27T05:34:07;102368.09;;;17.38;48.87
31082;BME280;17737;52.586;13.284;2023-05-27T05:36:36;102383.97;;;17.27;49.32
31082;BME280;17737;52.586;13.284;2023-05-27T05:39:05;102374.25;;;17.32;48.76
31082;BME280;17737;52.586;13.284;2023-05-27T05:41:34;102378.19;;;16.65;50.07
31082;BME280;17737;52.586;13.284;2023-05-27T05:44:02;102378.59;;;16.29;51.14
31082;BME280;17737;52.586;13.284;2023-05-27T05:46:31;102378.31;;;15.39;53.28
31082;BME280;17737;52.586;13.284;2023-05-27T05:48:59;102381.41;;;15.18;53.96
31082;BME280;17737;52.586;13.284;2023-05-27T05:51:27;102381.28;;;14.85;55.29
31082;BME280;17737;52.586;13.284;2023-05-27T05:53:55;102383.53;;;14.72;56.27
31082;BME280;17737;52.586;13.284;2023-05-27T05:56:25;102382.47;;;14.65;55.70
31082;BME280;17737;52.586;13.284;2023-05-27T05:58:53;102379.66;;;14.39;56.86
31082;BME280;17737;52.586;13.284;2023-05-27T06:01:21;102380.44;;;14.31;57.19
31082;BME280;17737;52.586;13.284;2023-05-27T06:03:49;102376.88;;;14.31;56.97
31082;BME280;17737;52.586;13.284;2023-05-27T06:06:18;102388.41;;;14.33;56.55
31082;BME280;17737;52.586;13.284;2023-05-27T06:08:46;102386.09;;;14.38;55.92
31082;BME280;17737;52.586;13.284;2023-05-27T06:11:14;102393.78;;;14.60;54.75
31082;BME280;17737;52.586;13.284;2023-05-27T06:13:43;102390.81;;;14.71;53.48
31082;BME280;17737;52.586;13.284;2023-05-27T06:16:11;102387.88;;;14.29;52.39
31082;BME280;17737;52.586;13.284;2023-05-27T06:18:40;102387.72;;;14.66;52.93
31082;BME280;17737;52.586;13.284;2023-05-27T06:21:12;102382.59;;;14.46;51.21
31082;BME280;17737;52.586;13.284;2023-05-27T06:23:40;102384.47;;;14.80;49.16
31082;BME280;17737;52.586;13.284;2023-05-27T06:26:08;102386.63;;;14.94;48.98
31082;BME280;17737;52.586;13.284;2023-05-27T06:28:36;102385.28;;;14.98;45.95
31082;BME280;17737;52.586;13.284;2023-05-27T06:31:06;102395.72;;;14.50;46.96
31082;BME280;17737;52.586;13.284;2023-05-27T06:33:34;102398.50;;;14.76;44.90
31082;BME280;17737;52.586;13.284;2023-05-27T06:36:02;102396.63;;;14.76;45.90
31082;BME280;17737;52.586;13.284;2023-05-27T06:38:30;102398.97;;;15.06;44.90
31082;BME280;17737;52.586;13.284;2023-05-27T06:40:58;102404.78;;;14.94;44.40
31082;BME280;17737;52.586;13.284;2023-05-27T06:43:26;102401.78;;;14.79;44.07
31082;BME280;17737;52.586;13.284;2023-05-27T06:45:54;102406.56;;;14.68;45.78
31082;BME280;17737;52.586;13.284;2023-05-27T06:48:29;102401.88;;;15.13;44.33
31082;BME280;17737;52.586;13.284;2023-05-27T06:50:56;102395.97;;;15.17;44.43
31082;BME280;17737;52.586;13.284;2023-05-27T06:53:24;102398.03;;;15.41;44.54
31082;BME280;17737;52.586;13.284;2023-05-27T06:55:53;102398.66;;;15.52;43.45
31082;BME280;17737;52.586;13.284;2023-05-27T06:58:21;102398.47;;;15.54;43.02
31082;BME280;17737;52.586;13.284;2023-05-27T07:00:49;102399.19;;;15.38;42.92
31082;BME280;17737;52.586;13.284;2023-05-27T07:03:17;102401.78;;;15.40;43.90
31082;BME280;17737;52.586;13.284;2023-05-27T07:05:47;102393.59;;;15.57;43.08
31082;BME280;17737;52.586;13.284;2023-05-27T07:08:15;102404.72;;;15.80;40.95
31082;BME280;17737;52.586;13.284;2023-05-27T07:10:43;102394.56;;;15.90;40.14
31082;BME280;17737;52.586;13.284;2023-05-27T07:13:11;102395.03;;;15.78;40.45
31082;BME280;17737;52.586;13.284;2023-05-27T07:15:40;102401.44;;;15.43;40.13
31082;BME280;17737;52.586;13.284;2023-05-27T07:18:08;102396.06;;;15.51;40.75
31082;BME280;17737;52.586;13.284;2023-05-27T07:20:38;102392.78;;;15.39;40.42
31082;BME280;17737;52.586;13.284;2023-05-27T07:23:08;102401.59;;;15.67;40.34
31082;BME280;17737;52.586;13.284;2023-05-27T07:25:36;102396.81;;;15.95;40.90
31082;BME280;17737;52.586;13.284;2023-05-27T07:28:04;102396.50;;;15.98;39.70
31082;BME280;17737;52.586;13.284;2023-05-27T07:30:32;102397.09;;;15.84;39.74
31082;BME280;17737;52.586;13.284;2023-05-27T07:33:00;102392.97;;;15.72;40.38
31082;BME280;17737;52.586;13.284;2023-05-27T07:35:28;102388.22;;;15.74;41.32
31082;BME280;17737;52.586;13.284;2023-05-27T07:37:57;102392.16;;;15.79;41.02
31082;BME280;17737;52.586;13.284;2023-05-27T07:40:26;102386.50;;;15.65;41.79
31082;BME280;17737;52.586;13.284;2023-05-27T07:42:54;102385.63;;;16.06;40.65
31082;BME280;17737;52.586;13.284;2023-05-27T07:45:22;102383.41;;;15.93;40.87
31082;BME280;17737;52.586;13.284;2023-05-27T07:47:50;102370.72;;;16.10;39.99
31082;BME280;17737;52.586;13.284;2023-05-27T07:50:18;102375.25;;;16.01;39.53
31082;BME280;17737;52.586;13.284;2023-05-27T07:52:46;102368.59;;;16.37;38.63
31082;BME280;17737;52.586;13.284;2023-05-27T07:55:14;102362.97;;;16.31;39.72
31082;BME280;17737;52.586;13.284;2023-05-27T07:57:44;102355.50;;;16.41;39.82
31082;BME280;17737;52.586;13.284;2023-05-27T08:00:13;102362.19;;;15.97;39.91
31082;BME280;17737;52.586;13.284;2023-05-27T08:02:41;102355.78;;;16.22;39.61
31082;BME280;17737;52.586;13.284;2023-05-27T08:05:10;102355.72;;;16.63;38.67
31082;BME280;17737;52.586;13.284;2023-05-27T08:07:38;102351.66;;;16.92;38.03
31082;BME280;17737;52.586;13.284;2023-05-27T08:10:07;102346.19;;;17.16;36.00
31082;BME280;17737;52.586;13.284;2023-05-27T08:12:36;102340.84;;;17.38;35.95
31082;BME280;17737;52.586;13.284;2023-05-27T08:15:06;102348.25;;;17.06;36.86
31082;BME280;17737;52.586;13.284;2023-05-27T08:17:35;102339.06;;;16.66;36.49
31082;BME280;17737;52.586;13.284;2023-05-27T08:20:04;102346.03;;;17.09;35.91
31082;BME280;17737;52.586;13.284;2023-05-27T08:22:34;102336.50;;;16.89;36.68
31082;BME280;17737;52.586;13.284;2023-05-27T08:25:03;102332.94;;;16.56;36.47
31082;BME280;17737;52.586;13.284;2023-05-27T08:27:46;102326.94;;;17.17;35.65
31082;BME280;17737;52.586;13.284;2023-05-27T08:30:18;102323.53;;;17.31;33.97
31082;BME280;17737;52.586;13.284;2023-05-27T08:32:47;102323.91;;;17.12;34.36
31082;BME280;17737;52.586;13.284;2023-05-27T08:35:17;102324.84;;;17.43;32.69
31082;BME280;17737;52.586;13.284;2023-05-27T08:37:46;102322.44;;;17.40;32.73
31082;BME280;17737;52.586;13.284;2023-05-27T08:40:16;102314.53;;;17.07;31.76
31082;BME280;17737;52.586;13.284;2023-05-27T08:42:46;102315.69;;;17.20;32.89
31082;BME280;17737;52.586;13.284;2023-05-27T08:45:15;102318.38;;;17.52;31.96
31082;BME280;17737;52.586;13.284;2023-05-27T08:47:45;102318.59;;;17.81;33.45
31082;BME280;17737;52.586;13.284;2023-05-27T08:50:15;102318.53;;;17.89;32.38
31082;BME280;17737;52.586;13.284;2023-05-27T08:52:46;102317.63;;;18.05;30.60
31082;BME280;17737;52.586;13.284;2023-05-27T08:55:20;102305.59;;;17.37;32.26
31082;BME280;17737;52.586;13.284;2023-05-27T08:57:51;102306.81;;;17.89;30.75
31082;BME280;17737;52.586;13.284;2023-05-27T09:00:23;102303.34;;;17.95;28.84
31082;BME280;17737;52.586;13.284;2023-05-27T09:02:53;102298.97;;;17.39;27.89
31082;BME280;17737;52.586;13.284;2023-05-27T09:05:23;102299.28;;;17.60;27.20
31082;BME280;17737;52.586;13.284;2023-05-27T09:07:51;102295.75;;;17.36;28.67
31082;BME280;17737;52.586;13.284;2023-05-27T09:10:19;102296.19;;;17.55;29.80
31082;BME280;17737;52.586;13.284;2023-05-27T09:12:49;102291.97;;;17.45;30.29
31082;BME280;17737;52.586;13.284;2023-05-27T09:15:18;102291.47;;;17.41;30.83
31082;BME280;17737;52.586;13.284;2023-05-27T09:17:46;102290.69;;;17.71;30.80
31082;BME280;17737;52.586;13.284;2023-05-27T09:20:16;102294.06;;;17.81;30.19
31082;BME280;17737;52.586;13.284;2023-05-27T09:22:44;102298.50;;;17.82;30.69
31082;BME280;17737;52.586;13.284;2023-05-27T09:25:14;102303.66;;;17.69;30.91
31082;BME280;17737;52.586;13.284;2023-05-27T09:27:43;102290.19;;;17.68;32.64
31082;BME280;17737;52.586;13.284;2023-05-27T09:30:12;102292.00;;;17.83;31.79
31082;BME280;17737;52.586;13.284;2023-05-27T09:32:41;102297.09;;;17.32;32.13
31082;BME280;17737;52.586;13.284;2023-05-27T09:35:11;102290.63;;;17.41;32.42
31082;BME280;17737;52.586;13.284;2023-05-27T09:37:41;102288.41;;;17.83;32.62
31082;BME280;17737;52.586;13.284;2023-05-27T09:40:12;102295.38;;;18.39;32.95
31082;BME280;17737;52.586;13.284;2023-05-27T09:42:42;102295.38;;;18.69;31.22
31082;BME280;17737;52.586;13.284;2023-05-27T09:45:12;102292.56;;;18.77;29.61
31082;BME280;17737;52.586;13.284;2023-05-27T09:47:43;102290.97;;;18.83;29.67
31082;BME280;17737;52.586;13.284;2023-05-27T09:50:15;102285.56;;;18.75;29.56
31082;BME280;17737;52.586;13.284;2023-05-27T09:52:47;102282.03;;;18.52;29.96
31082;BME280;17737;52.586;13.284;2023-05-27T09:55:31;102282.81;;;17.76;30.37
31082;BME280;17737;52.586;13.284;2023-05-27T09:58:01;102284.50;;;18.08;30.01
31082;BME280;17737;52.586;13.284;2023-05-27T10:00:29;102276.81;;;18.12;31.69
31082;BME280;17737;52.586;13.284;2023-05-27T10:03:00;102273.13;;;18.27;30.47
31082;BME280;17737;52.586;13.284;2023-05-27T10:05:29;102274.22;;;18.49;30.43
31082;BME280;17737;52.586;13.284;2023-05-27T10:07:59;102265.47;;;18.90;29.08
31082;BME280;17737;52.586;13.284;2023-05-27T10:10:32;102268.59;;;18.65;29.33
31082;BME280;17737;52.586;13.284;2023-05-27T10:13:00;102262.19;;;18.58;29.77
31082;BME280;17737;52.586;13.284;2023-05-27T10:15:31;102256.22;;;18.54;30.42
31082;BME280;17737;52.586;13.284;2023-05-27T10:18:02;102258.31;;;19.04;29.02
31082;BME280;17737;52.586;13.284;2023-05-27T10:20:34;102261.03;;;18.89;28.88
31082;BME280;17737;52.586;13.284;2023-05-27T10:23:13;102255.88;;;18.94;28.84
31082;BME280;17737;52.586;13.284;2023-05-27T10:25:46;102242.50;;;18.99;29.07
31082;BME280;17737;52.586;13.284;2023-05-27T10:28:26;102251.22;;;18.95;29.21
31082;BME280;17737;52.586;13.284;2023-05-27T10:31:02;102252.38;;;18.86;28.59
31082;BME280;17737;52.586;13.284;2023-05-27T10:33:34;102244.75;;;19.10;28.28
31082;BME280;17737;52.586;13.284;2023-05-27T10:36:06;102240.91;;;19.05;29.52
31082;BME280;17737;52.586;13.284;2023-05-27T10:38:37;102241.75;;;19.20;29.54
31082;BME280;17737;52.586;13.284;2023-05-27T10:41:07;102232.41;;;18.85;29.65
31082;BME280;17737;52.586;13.284;2023-05-27T10:43:36;102229.88;;;19.28;29.65
31082;BME280;17737;52.586;13.284;2023-05-27T10:46:06;102223.38;;;19.43;28.65
31082;BME280;17737;52.586;13.284;2023-05-27T10:48:36;102231.41;;;19.30;28.35
31082;BME280;17737;52.586;13.284;2023-05-27T10:51:06;102227.88;;;19.07;28.73
31082;BME280;17737;52.586;13.284;2023-05-27T10:53:37;102226.75;;;18.72;29.24
31082;BME280;17737;52.586;13.284;2023-05-27T10:56:06;102224.22;;;19.29;28.60
31082;BME280;17737;52.586;13.284;2023-05-27T10:58:35;102221.38;;;19.23;28.29
31082;BME280;17737;52.586;13.284;2023-05-27T11:01:09;102211.91;;;19.33;28.56
31082;BME280;17737;52.586;13.284;2023-05-27T11:03:42;102212.59;;;19.56;28.35
31082;BME280;17737;52.586;13.284;2023-05-27T11:06:13;102212.06;;;19.46;28.47
31082;BME280;17737;52.586;13.284;2023-05-27T11:08:44;102197.47;;;19.10;29.19
31082;BME280;17737;52.586;13.284;2023-05-27T11:11:13;102198.22;;;19.83;28.29
31082;BME280;17737;52.586;13.284;2023-05-27T11:13:42;102193.28;;;19.93;28.17
31082;BME280;17737;52.586;13.284;2023-05-27T11:16:15;102193.19;;;19.87;27.73
31082;BME280;17737;52.586;13.284;2023-05-27T11:18:44;102186.94;;;19.72;27.20
31082;BME280;17737;52.586;13.284;2023-05-27T11:21:15;102183.44;;;19.42;27.53
31082;BME280;17737;52.586;13.284;2023-05-27T11:23:46;102180.56;;;19.86;27.59
31082;BME280;17737;52.586;13.284;2023-05-27T11:26:17;102181.03;;;19.89;27.54
31082;BME280;17737;52.586;13.284;2023-05-27T11:28:47;102188.59;;;19.52;27.34
31082;BME280;17737;52.586;13.284;2023-05-27T11:31:17;102177.50;;;19.09;27.93
31082;BME280;17737;52.586;13.284;2023-05-27T11:33:49;102179.91;;;19.84;27.12
31082;BME280;17737;52.586;13.284;2023-05-27T11:36:18;102174.66;;;19.47;27.47
31082;BME280;17737;52.586;13.284;2023-05-27T11:38:53;102174.84;;;19.45;27.54
31082;BME280;17737;52.586;13.284;2023-05-27T11:41:23;102172.88;;;19.75;27.80
31082;BME280;17737;52.586;13.284;2023-05-27T11:43:56;102175.84;;;19.59;28.11
31082;BME280;17737;52.586;13.284;2023-05-27T11:46:33;102165.00;;;19.86;27.53
31082;BME280;17737;52.586;13.284;2023-05-27T11:49:03;102159.41;;;19.94;27.83
31082;BME280;17737;52.586;13.284;2023-05-27T11:51:33;102155.25;;;19.98;27.99
31082;BME280;17737;52.586;13.284;2023-05-27T11:54:03;102148.72;;;19.99;27.79
31082;BME280;17737;52.586;13.284;2023-05-27T11:56:31;102150.69;;;19.84;27.58
31082;BME280;17737;52.586;13.284;2023-05-27T11:59:00;102160.56;;;20.06;27.09
31082;BME280;17737;52.586;13.284;2023-05-27T12:01:28;102153.88;;;20.09;27.34
31082;BME280;17737;52.586;13.284;2023-05-27T12:03:56;102155.25;;;20.19;27.46
31082;BME280;17737;52.586;13.284;2023-05-27T12:06:24;102148.19;;;20.32;27.28
31082;BME280;17737;52.586;13.284;2023-05-27T12:08:52;102144.03;;;20.36;26.38
31082;BME280;17737;52.586;13.284;2023-05-27T12:11:21;102142.84;;;20.02;26.59
31082;BME280;17737;52.586;13.284;2023-05-27T12:13:49;102133.09;;;19.72;27.41
31082;BME280;17737;52.586;13.284;2023-05-27T12:16:18;102131.28;;;19.79;27.46
31082;BME280;17737;52.586;13.284;2023-05-27T12:18:46;102123.31;;;20.54;26.39
31082;BME280;17737;52.586;13.284;2023-05-27T12:21:15;102126.88;;;20.48;26.87
31082;BME280;17737;52.586;13.284;2023-05-27T12:23:43;102124.22;;;20.34;27.21
31082;BME280;17737;52.586;13.284;2023-05-27T12:26:12;102127.34;;;20.31;27.01
31082;BME280;17737;52.586;13.284;2023-05-27T12:28:43;102121.47;;;20.12;27.78
31082;BME280;17737;52.586;13.284;2023-05-27T12:31:11;102122.84;;;20.23;27.55
31082;BME280;17737;52.586;13.284;2023-05-27T12:33:39;102126.13;;;20.12;27.99
31082;BME280;17737;52.586;13.284;2023-05-27T12:36:08;102135.94;;;20.06;28.27
31082;BME280;17737;52.586;13.284;2023-05-27T12:38:37;102115.44;;;20.17;28.29
31082;BME280;17737;52.586;13.284;2023-05-27T12:41:05;102105.41;;;20.03;28.62
31082;BME280;17737;52.586;13.284;2023-05-27T12:43:33;102100.03;;;20.37;29.44
31082;BME280;17737;52.586;13.284;2023-05-27T12:46:03;102101.09;;;20.15;28.49
31082;BME280;17737;52.586;13.284;2023-05-27T12:48:31;102091.28;;;20.20;28.57
31082;BME280;17737;52.586;13.284;2023-05-27T12:50:59;102088.41;;;20.63;28.49
31082;BME280;17737;52.586;13.284;2023-05-27T12:53:27;102092.03;;;21.04;27.88